Time,TemperatureF,DewpointF,PressureIn,WindDirection,WindDirectionDegrees,WindSpeedMPH,WindSpeedGustMPH,Humidity,HourlyPrecipIn,Conditions,Clouds,dailyrainin,SoftwareType,DateUTC
2013-08-23 00:00:00,71.9,70.7,29.83,SW,233,10.0,37.0,96,0.00,,,0.00,Wunderground v.1.15,2013-08-23 04:00:00,
2013-08-23 00:10:00,71.9,70.7,29.82,WSW,240,9.0,9.0,96,0.00,,,0.00,Wunderground v.1.15,2013-08-23 04:10:00,
2013-08-23 00:20:00,71.7,70.5,29.82,West,263,8.0,8.0,96,0.00,,,0.00,Wunderground v.1.15,2013-08-23 04:20:00,
2013-08-23 00:30:00,71.6,70.4,29.82,West,271,9.0,9.0,96,0.00,,,0.00,Wunderground v.1.15,2013-08-23 04:30:00,
2013-08-23 00:40:00,71.6,70.4,29.82,SW,222,9.0,9.0,96,0.00,,,0.00,Wunderground v.1.15,2013-08-23 04:40:00,
2013-08-23 00:50:00,71.7,70.8,29.82,WSW,238,9.0,9.0,97,0.00,,,0.00,Wunderground v.1.15,2013-08-23 04:50:00,
2013-08-23 01:00:00,72.0,70.8,29.82,WSW,255,11.0,37.0,96,0.00,,,0.00,Wunderground v.1.15,2013-08-23 05:00:00,
2013-08-23 01:10:00,71.9,70.7,29.81,West,278,9.0,37.0,96,0.00,,,0.00,Wunderground v.1.15,2013-08-23 05:10:00,
2013-08-23 01:20:00,72.0,70.8,29.81,WSW,250,9.0,37.0,96,0.00,,,0.00,Wunderground v.1.15,2013-08-23 05:20:00,
2013-08-23 01:30:00,72.1,70.9,29.81,SW,222,9.0,37.0,96,0.00,,,0.00,Wunderground v.1.15,2013-08-23 05:30:00,
2013-08-23 01:40:00,72.1,70.9,29.81,SW,225,9.0,37.0,96,0.00,,,0.00,Wunderground v.1.15,2013-08-23 05:40:00,
2013-08-23 01:50:00,71.8,70.0,29.81,West,259,9.0,37.0,94,0.00,,,0.00,Wunderground v.1.15,2013-08-23 05:50:00,
2013-08-23 02:00:00,71.8,70.3,29.80,WNW,283,10.0,10.0,95,0.00,,,0.00,Wunderground v.1.15,2013-08-23 06:00:00,
2013-08-23 02:10:00,71.6,69.8,29.81,WSW,258,10.0,37.0,94,0.00,,,0.00,Wunderground v.1.15,2013-08-23 06:10:00,
2013-08-23 02:20:00,71.3,69.5,29.80,SSW,198,10.0,10.0,94,0.00,,,0.00,Wunderground v.1.15,2013-08-23 06:20:00,
2013-08-23 02:30:00,71.0,69.5,29.81,South,190,11.0,11.0,95,0.00,,,0.00,Wunderground v.1.15,2013-08-23 06:30:00,
2013-08-23 02:40:00,70.8,69.3,29.81,NW,316,9.0,9.0,95,0.00,,,0.00,Wunderground v.1.15,2013-08-23 06:40:00,
2013-08-23 02:50:00,70.8,69.6,29.80,WSW,250,9.0,9.0,96,0.00,,,0.00,Wunderground v.1.15,2013-08-23 06:50:00,
2013-08-23 03:00:00,70.9,69.7,29.80,WSW,253,8.0,37.0,96,0.00,,,0.00,Wunderground v.1.15,2013-08-23 07:00:00,
2013-08-23 03:10:00,70.9,69.7,29.79,SW,226,8.0,8.0,96,0.00,,,0.00,Wunderground v.1.15,2013-08-23 07:10:00,
2013-08-23 03:20:00,70.9,69.7,29.79,West,267,8.0,8.0,96,0.00,,,0.00,Wunderground v.1.15,2013-08-23 07:20:00,
2013-08-23 03:30:00,71.0,69.8,29.80,SW,236,7.0,7.0,96,0.00,,,0.00,Wunderground v.1.15,2013-08-23 07:30:00,
2013-08-23 03:40:00,71.0,69.8,29.80,SSW,212,7.0,7.0,96,0.00,,,0.00,Wunderground v.1.15,2013-08-23 07:40:00,
2013-08-23 03:50:00,70.9,69.7,29.79,West,270,6.0,37.0,96,0.00,,,0.00,Wunderground v.1.15,2013-08-23 07:50:00,
2013-08-23 04:00:00,70.6,69.4,29.79,WSW,238,6.0,6.0,96,0.00,,,0.00,Wunderground v.1.15,2013-08-23 08:00:00,
2013-08-23 04:10:00,70.4,69.2,29.79,WSW,257,4.0,4.0,96,0.00,,,0.00,Wunderground v.1.15,2013-08-23 08:10:00,
2013-08-23 04:20:00,70.1,68.9,29.79,West,278,3.0,37.0,96,0.00,,,0.00,Wunderground v.1.15,2013-08-23 08:20:00,
2013-08-23 04:30:00,69.9,68.7,29.79,SW,229,3.0,37.0,96,0.00,,,0.00,Wunderground v.1.15,2013-08-23 08:30:00,
2013-08-23 04:40:00,69.7,68.8,29.79,West,259,3.0,37.0,97,0.00,,,0.00,Wunderground v.1.15,2013-08-23 08:40:00,
2013-08-23 04:50:00,69.5,68.6,29.79,West,267,3.0,3.0,97,0.00,,,0.00,Wunderground v.1.15,2013-08-23 08:50:00,
2013-08-23 05:00:00,69.3,68.4,29.79,WSW,238,3.0,3.0,97,0.00,,,0.00,Wunderground v.1.15,2013-08-23 09:00:00,
2013-08-23 05:10:00,69.2,68.3,29.79,WSW,247,2.0,37.0,97,0.00,,,0.00,Wunderground v.1.15,2013-08-23 09:10:00,
2013-08-23 05:20:00,69.0,68.4,29.79,WSW,238,2.0,37.0,98,0.00,,,0.00,Wunderground v.1.15,2013-08-23 09:20:00,
2013-08-23 05:30:00,68.8,68.2,29.80,WSW,250,2.0,2.0,98,0.00,,,0.00,Wunderground v.1.15,2013-08-23 09:30:00,
2013-08-23 05:40:00,68.6,68.0,29.80,WNW,287,1.0,37.0,98,0.00,,,0.00,Wunderground v.1.15,2013-08-23 09:40:00,
2013-08-23 05:50:00,68.6,68.0,29.81,WSW,243,1.0,37.0,98,0.00,,,0.00,Wunderground v.1.15,2013-08-23 09:50:00,
2013-08-23 06:00:00,68.5,67.9,29.81,West,260,1.0,37.0,98,0.00,,,0.00,Wunderground v.1.15,2013-08-23 10:00:00,
2013-08-23 06:10:00,68.4,67.8,29.81,West,261,1.0,37.0,98,0.00,,,0.00,Wunderground v.1.15,2013-08-23 10:10:00,
2013-08-23 06:20:00,68.5,67.9,29.81,WNW,285,1.0,37.0,98,0.00,,,0.00,Wunderground v.1.15,2013-08-23 10:20:00,
2013-08-23 06:30:00,68.6,68.0,29.81,WNW,288,1.0,1.0,98,0.00,,,0.00,Wunderground v.1.15,2013-08-23 10:30:00,
2013-08-23 06:40:00,68.9,68.3,29.82,WNW,299,2.0,37.0,98,0.00,,,0.00,Wunderground v.1.15,2013-08-23 10:40:00,
2013-08-23 06:50:00,69.6,69.0,29.83,WNW,300,3.0,37.0,98,0.00,,,0.00,Wunderground v.1.15,2013-08-23 10:50:00,
2013-08-23 07:00:00,70.1,69.2,29.83,West,274,3.0,3.0,97,0.00,,,0.00,Wunderground v.1.15,2013-08-23 11:00:00,
2013-08-23 07:10:00,70.3,68.8,29.83,NNW,328,3.0,37.0,95,0.00,,,0.00,Wunderground v.1.15,2013-08-23 11:10:00,
2013-08-23 07:20:00,70.3,68.5,29.83,NNW,327,6.0,37.0,94,0.00,,,0.00,Wunderground v.1.15,2013-08-23 11:20:00,
2013-08-23 07:30:00,70.3,68.2,29.84,NNW,335,6.0,6.0,93,0.00,,,0.00,Wunderground v.1.15,2013-08-23 11:30:00,
2013-08-23 07:40:00,70.4,68.0,29.84,WNW,297,6.0,37.0,92,0.00,,,0.00,Wunderground v.1.15,2013-08-23 11:40:00,
2013-08-23 07:51:00,70.5,67.4,29.84,NNW,330,7.0,7.0,90,0.00,,,0.00,Wunderground v.1.15,2013-08-23 11:51:00,
2013-08-23 08:00:00,70.6,67.5,29.84,NW,316,6.0,37.0,90,0.00,,,0.00,Wunderground v.1.15,2013-08-23 12:00:00,
2013-08-23 08:10:00,70.8,67.4,29.84,North,352,6.0,37.0,89,0.00,,,0.00,Wunderground v.1.15,2013-08-23 12:10:00,
2013-08-23 08:20:00,71.2,67.1,29.84,NNW,333,7.0,37.0,87,0.00,,,0.00,Wunderground v.1.15,2013-08-23 12:20:00,
2013-08-23 08:30:00,71.6,66.8,29.85,North,356,8.0,37.0,85,0.00,,,0.00,Wunderground v.1.15,2013-08-23 12:30:00,
2013-08-23 08:41:00,71.8,66.7,29.85,NNW,338,9.0,9.0,84,0.00,,,0.00,Wunderground v.1.15,2013-08-23 12:41:00,
2013-08-23 08:50:00,72.8,67.3,29.86,NNE,24,7.0,37.0,83,0.00,,,0.00,Wunderground v.1.15,2013-08-23 12:50:00,
2013-08-23 09:00:00,72.8,66.3,29.86,NNW,346,8.0,8.0,80,0.00,,,0.00,Wunderground v.1.15,2013-08-23 13:00:00,
2013-08-23 09:10:00,73.0,65.7,29.86,NNE,20,6.0,37.0,78,0.00,,,0.00,Wunderground v.1.15,2013-08-23 13:10:00,
2013-08-23 09:20:00,73.4,64.6,29.86,NNE,24,10.0,10.0,74,0.00,,,0.00,Wunderground v.1.15,2013-08-23 13:20:00,
2013-08-23 09:30:00,73.6,64.4,29.86,South,174,8.0,8.0,73,0.00,,,0.00,Wunderground v.1.15,2013-08-23 13:30:00,
2013-08-23 09:40:00,73.1,63.5,29.87,NNW,329,10.0,10.0,72,0.00,,,0.00,Wunderground v.1.15,2013-08-23 13:40:00,
2013-08-23 09:50:00,72.4,63.3,29.88,North,351,11.0,37.0,73,0.00,,,0.00,Wunderground v.1.15,2013-08-23 13:50:00,
2013-08-23 10:00:00,72.6,63.1,29.88,NNE,13,8.0,37.0,72,0.00,,,0.00,Wunderground v.1.15,2013-08-23 14:00:00,
2013-08-23 10:10:00,72.4,62.9,29.88,NNE,30,11.0,11.0,72,0.00,,,0.00,Wunderground v.1.15,2013-08-23 14:10:00,
2013-08-23 10:20:00,72.2,62.7,29.88,NNE,12,12.0,37.0,72,0.00,,,0.00,Wunderground v.1.15,2013-08-23 14:20:00,
2013-08-23 10:30:00,72.5,63.0,29.89,North,10,11.0,37.0,72,0.00,,,0.00,Wunderground v.1.15,2013-08-23 14:30:00,
2013-08-23 10:40:00,72.6,63.4,29.89,North,354,10.0,37.0,73,0.00,,,0.00,Wunderground v.1.15,2013-08-23 14:40:00,
2013-08-23 10:50:00,72.5,63.4,29.89,NNE,13,10.0,37.0,73,0.00,,,0.00,Wunderground v.1.15,2013-08-23 14:50:00,
2013-08-23 11:00:00,72.2,63.4,29.89,NW,316,13.0,37.0,74,0.00,,,0.00,Wunderground v.1.15,2013-08-23 15:00:00,
2013-08-23 11:10:00,72.5,63.7,29.89,North,353,10.0,37.0,74,0.00,,,0.00,Wunderground v.1.15,2013-08-23 15:10:00,
2013-08-23 11:20:00,72.9,64.5,29.89,ENE,61,11.0,37.0,75,0.00,,,0.00,Wunderground v.1.15,2013-08-23 15:20:00,
2013-08-23 11:30:00,73.2,64.4,29.90,NNE,21,9.0,9.0,74,0.00,,,0.00,Wunderground v.1.15,2013-08-23 15:30:00,
2013-08-23 11:40:00,72.5,63.7,29.90,NE,53,10.0,37.0,74,0.00,,,0.00,Wunderground v.1.15,2013-08-23 15:40:00,
2013-08-23 11:50:00,72.7,63.5,29.90,NE,46,11.0,11.0,73,0.00,,,0.00,Wunderground v.1.15,2013-08-23 15:50:00,
2013-08-23 12:00:00,72.1,63.4,29.90,NNE,20,11.0,11.0,74,0.00,,,0.00,Wunderground v.1.15,2013-08-23 16:00:00,
2013-08-23 12:10:00,70.7,62.0,29.90,NE,53,10.0,37.0,74,0.00,,,0.00,Wunderground v.1.15,2013-08-23 16:10:00,
2013-08-23 12:20:00,70.4,61.7,29.91,NE,38,12.0,12.0,74,0.00,,,0.00,Wunderground v.1.15,2013-08-23 16:20:00,
2013-08-23 12:30:00,70.6,61.5,29.91,NNE,22,10.0,37.0,73,0.00,,,0.00,Wunderground v.1.15,2013-08-23 16:30:00,
2013-08-23 12:40:00,70.5,62.2,29.91,NW,323,10.0,10.0,75,0.00,,,0.00,Wunderground v.1.15,2013-08-23 16:40:00,
2013-08-23 12:50:00,70.2,61.5,29.91,North,4,12.0,37.0,74,0.00,,,0.00,Wunderground v.1.15,2013-08-23 16:50:00,
2013-08-23 13:00:00,70.3,62.0,29.91,NNE,23,14.0,14.0,75,0.00,,,0.00,Wunderground v.1.15,2013-08-23 17:00:00,
2013-08-23 13:10:00,71.7,63.4,29.91,North,358,10.0,37.0,75,0.00,,,0.00,Wunderground v.1.15,2013-08-23 17:10:00,
2013-08-23 13:20:00,71.1,62.4,29.91,North,5,13.0,37.0,74,0.00,,,0.00,Wunderground v.1.15,2013-08-23 17:20:00,
2013-08-23 13:30:00,71.4,62.3,29.91,NW,318,11.0,37.0,73,0.00,,,0.00,Wunderground v.1.15,2013-08-23 17:30:00,
2013-08-23 13:40:00,71.6,62.9,29.92,East,94,10.0,37.0,74,0.00,,,0.00,Wunderground v.1.15,2013-08-23 17:40:00,
2013-08-23 13:50:00,70.9,61.4,29.92,NNW,339,14.0,14.0,72,0.00,,,0.00,Wunderground v.1.15,2013-08-23 17:50:00,
2013-08-23 14:00:00,71.4,61.5,29.92,North,11,11.0,11.0,71,0.00,,,0.00,Wunderground v.1.15,2013-08-23 18:00:00,
2013-08-23 14:10:00,71.4,61.5,29.92,NNE,15,10.0,37.0,71,0.00,,,0.00,Wunderground v.1.15,2013-08-23 18:10:00,
2013-08-23 14:20:00,70.9,60.6,29.93,NNW,335,13.0,37.0,70,0.00,,,0.00,Wunderground v.1.15,2013-08-23 18:20:00,
2013-08-23 14:30:00,70.6,60.7,29.93,NNE,18,12.0,12.0,71,0.00,,,0.00,Wunderground v.1.15,2013-08-23 18:30:00,
2013-08-23 14:40:00,69.9,60.5,29.94,North,10,12.0,37.0,72,0.00,,,0.00,Wunderground v.1.15,2013-08-23 18:40:00,
2013-08-23 14:50:00,70.7,60.8,29.93,ENE,66,10.0,37.0,71,0.00,,,0.00,Wunderground v.1.15,2013-08-23 18:50:00,
2013-08-23 15:00:00,70.6,60.3,29.93,ENE,60,11.0,37.0,70,0.00,,,0.00,Wunderground v.1.15,2013-08-23 19:00:00,
2013-08-23 15:10:00,71.0,60.7,29.94,NE,51,11.0,11.0,70,0.00,,,0.00,Wunderground v.1.15,2013-08-23 19:10:00,
2013-08-23 15:20:00,70.8,59.7,29.94,North,358,10.0,37.0,68,0.00,,,0.00,Wunderground v.1.15,2013-08-23 19:20:00,
2013-08-23 15:30:00,70.9,59.8,29.94,ENE,67,10.0,10.0,68,0.00,,,0.00,Wunderground v.1.15,2013-08-23 19:30:00,
2013-08-23 15:40:00,70.7,59.6,29.94,North,358,10.0,10.0,68,0.00,,,0.00,Wunderground v.1.15,2013-08-23 19:40:00,
2013-08-23 15:50:00,70.8,59.3,29.94,North,352,10.0,10.0,67,0.00,,,0.00,Wunderground v.1.15,2013-08-23 19:50:00,
2013-08-23 16:00:00,70.8,59.3,29.95,NNE,13,10.0,37.0,67,0.00,,,0.00,Wunderground v.1.15,2013-08-23 20:00:00,
2013-08-23 16:10:00,70.8,60.1,29.95,NNE,27,10.0,10.0,69,0.00,,,0.00,Wunderground v.1.15,2013-08-23 20:10:00,
2013-08-23 16:20:00,70.8,59.7,29.95,NNW,328,10.0,37.0,68,0.00,,,0.00,Wunderground v.1.15,2013-08-23 20:20:00,
2013-08-23 16:30:00,70.7,60.4,29.95,North,1,10.0,37.0,70,0.00,,,0.00,Wunderground v.1.15,2013-08-23 20:30:00,
2013-08-23 16:40:00,70.7,60.0,29.95,NE,41,8.0,37.0,69,0.00,,,0.00,Wunderground v.1.15,2013-08-23 20:40:00,
2013-08-23 16:50:00,70.7,60.4,29.95,NNW,337,8.0,8.0,70,0.00,,,0.00,Wunderground v.1.15,2013-08-23 20:50:00,
2013-08-23 17:00:00,71.1,60.8,29.96,NNE,27,7.0,7.0,70,0.00,,,0.00,Wunderground v.1.15,2013-08-23 21:00:00,
2013-08-23 17:10:00,70.4,60.9,29.96,NNW,331,7.0,7.0,72,0.00,,,0.00,Wunderground v.1.15,2013-08-23 21:10:00,
2013-08-23 17:20:00,69.7,60.7,29.96,NNE,31,8.0,37.0,73,0.00,,,0.00,Wunderground v.1.15,2013-08-23 21:20:00,
2013-08-23 17:30:00,69.4,60.8,29.96,NE,41,7.0,37.0,74,0.00,,,0.00,Wunderground v.1.15,2013-08-23 21:30:00,
2013-08-23 17:40:00,69.0,60.7,29.96,NNE,33,6.0,6.0,75,0.00,,,0.00,Wunderground v.1.15,2013-08-23 21:40:00,
2013-08-23 17:50:00,69.2,61.3,29.96,North,6,6.0,6.0,76,0.00,,,0.00,Wunderground v.1.15,2013-08-23 21:50:00,
2013-08-23 18:00:00,68.9,61.4,29.96,NE,51,6.0,6.0,77,0.00,,,0.00,Wunderground v.1.15,2013-08-23 22:00:00,
2013-08-23 18:10:00,68.1,61.3,29.96,NE,42,6.0,37.0,79,0.00,,,0.00,Wunderground v.1.15,2013-08-23 22:10:00,
2013-08-23 18:20:00,67.7,61.3,29.96,ENE,58,6.0,6.0,80,0.00,,,0.00,Wunderground v.1.15,2013-08-23 22:20:00,
2013-08-23 18:30:00,67.1,61.1,29.96,NNE,33,5.0,37.0,81,0.00,,,0.00,Wunderground v.1.15,2013-08-23 22:30:00,
2013-08-23 18:40:00,66.9,61.2,29.97,ENE,65,4.0,37.0,82,0.00,,,0.00,Wunderground v.1.15,2013-08-23 22:40:00,
2013-08-23 18:50:00,67.1,61.4,29.96,North,358,4.0,4.0,82,0.00,,,0.00,Wunderground v.1.15,2013-08-23 22:50:00,
2013-08-23 19:00:00,66.9,60.9,29.97,NE,49,5.0,37.0,81,0.00,,,0.00,Wunderground v.1.15,2013-08-23 23:00:00,
2013-08-23 19:10:00,66.4,61.1,29.97,NNE,33,4.0,37.0,83,0.00,,,0.00,Wunderground v.1.15,2013-08-23 23:10:00,
2013-08-23 19:20:00,66.2,61.2,29.97,NNE,28,4.0,4.0,84,0.00,,,0.00,Wunderground v.1.15,2013-08-23 23:20:00,
2013-08-23 19:30:00,65.9,60.9,29.98,NE,46,3.0,37.0,84,0.00,,,0.00,Wunderground v.1.15,2013-08-23 23:30:00,
2013-08-23 19:40:00,65.5,60.9,29.98,NNE,23,4.0,4.0,85,0.00,,,0.00,Wunderground v.1.15,2013-08-23 23:40:00,
2013-08-23 19:50:00,65.3,61.0,29.98,NNE,23,4.0,4.0,86,0.00,,,0.00,Wunderground v.1.15,2013-08-23 23:50:00,
2013-08-23 20:00:00,65.2,61.2,29.99,ENE,68,2.0,37.0,87,0.00,,,0.00,Wunderground v.1.15,2013-08-24 00:00:00,
2013-08-23 20:10:00,65.0,61.0,29.99,ENE,60,1.0,37.0,87,0.00,,,0.00,Wunderground v.1.15,2013-08-24 00:10:00,
2013-08-23 20:20:00,65.0,61.0,30.00,NE,39,1.0,37.0,87,0.00,,,0.00,Wunderground v.1.15,2013-08-24 00:20:00,
2013-08-23 20:30:00,64.9,60.9,30.00,NNE,30,2.0,2.0,87,0.00,,,0.00,Wunderground v.1.15,2013-08-24 00:30:00,
2013-08-23 20:40:00,64.6,61.0,30.01,NNE,24,2.0,2.0,88,0.00,,,0.00,Wunderground v.1.15,2013-08-24 00:40:00,
2013-08-23 20:50:00,64.3,60.7,30.01,NNE,20,1.0,37.0,88,0.00,,,0.00,Wunderground v.1.15,2013-08-24 00:50:00,
2013-08-23 21:00:00,63.9,60.9,30.02,North,354,1.0,37.0,90,0.00,,,0.00,Wunderground v.1.15,2013-08-24 01:00:00,
2013-08-23 21:10:00,63.6,60.9,30.02,NW,325,1.0,37.0,91,0.00,,,0.00,Wunderground v.1.15,2013-08-24 01:10:00,
2013-08-23 21:20:00,63.3,60.9,30.02,NW,313,1.0,37.0,92,0.00,,,0.00,Wunderground v.1.15,2013-08-24 01:20:00,
2013-08-23 21:30:00,63.2,60.8,30.02,NW,320,3.0,3.0,92,0.00,,,0.00,Wunderground v.1.15,2013-08-24 01:30:00,
2013-08-23 21:40:00,63.1,61.0,30.03,NW,317,2.0,37.0,93,0.00,,,0.00,Wunderground v.1.15,2013-08-24 01:40:00,
2013-08-23 21:50:00,63.0,60.6,30.02,NNW,334,3.0,3.0,92,0.00,,,0.00,Wunderground v.1.15,2013-08-24 01:50:00,
2013-08-23 22:00:00,62.9,60.5,30.02,NW,318,2.0,37.0,92,0.00,,,0.00,Wunderground v.1.15,2013-08-24 02:00:00,
2013-08-23 22:10:00,62.7,60.3,30.02,NW,316,2.0,37.0,92,0.00,,,0.00,Wunderground v.1.15,2013-08-24 02:10:00,
2013-08-23 22:20:00,62.9,60.8,30.03,NNW,336,3.0,37.0,93,0.00,,,0.00,Wunderground v.1.15,2013-08-24 02:20:00,
2013-08-23 22:30:00,62.9,60.5,30.03,NNW,328,3.0,37.0,92,0.00,,,0.00,Wunderground v.1.15,2013-08-24 02:30:00,
2013-08-23 22:40:00,63.0,60.3,30.03,WNW,302,3.0,3.0,91,0.00,,,0.00,Wunderground v.1.15,2013-08-24 02:40:00,
2013-08-23 22:50:00,63.1,60.4,30.04,North,352,3.0,3.0,91,0.00,,,0.00,Wunderground v.1.15,2013-08-24 02:50:00,
2013-08-23 23:00:00,63.1,60.1,30.04,NNW,340,3.0,3.0,90,0.00,,,0.00,Wunderground v.1.15,2013-08-24 03:00:00,
2013-08-23 23:10:00,63.2,60.2,30.05,NNW,340,3.0,3.0,90,0.00,,,0.00,Wunderground v.1.15,2013-08-24 03:10:00,
2013-08-23 23:20:00,63.1,60.1,30.05,NNW,340,3.0,3.0,90,0.00,,,0.00,Wunderground v.1.15,2013-08-24 03:20:00,
2013-08-23 23:30:00,63.0,60.0,30.05,NNW,340,3.0,3.0,90,0.00,,,0.00,Wunderground v.1.15,2013-08-24 03:30:00,
2013-08-23 23:40:00,62.9,59.9,30.05,NNE,33,3.0,37.0,90,0.00,,,0.00,Wunderground v.1.15,2013-08-24 03:40:00,
2013-08-23 23:50:00,63.0,59.7,30.06,NW,309,3.0,3.0,89,0.00,,,0.00,Wunderground v.1.15,2013-08-24 03:50:00,